sensor_id;sensor_type;location;lat;lon;timestamp;P1;durP1;ratioP1;P2;durP2;ratioP2
37087;SDS011;23002;52.676;6.432;2023-05-21T00:01:56;7.07;;;2.63;;
37087;SDS011;23002;52.676;6.432;2023-05-21T00:04:25;3.90;;;2.28;;
37087;SDS011;23002;52.676;6.432;2023-05-21T00:06:54;6.30;;;2.50;;
37087;SDS011;23002;52.676;6.432;2023-05-21T00:09:21;5.25;;;2.70;;
37087;SDS011;23002;52.676;6.432;2023-05-21T00:11:48;5.50;;;2.30;;
37087;SDS011;23002;52.676;6.432;2023-05-21T00:14:16;4.03;;;1.80;;
37087;SDS011;23002;52.676;6.432;2023-05-21T00:16:43;4.25;;;2.20;;
37087;SDS011;23002;52.676;6.432;2023-05-21T00:19:12;4.68;;;2.33;;
37087;SDS011;23002;52.676;6.432;2023-05-21T00:21:39;4.82;;;2.30;;
37087;SDS011;23002;52.676;6.432;2023-05-21T00:24:06;4.45;;;2.47;;
37087;SDS011;23002;52.676;6.432;2023-05-21T00:26:33;5.20;;;2.47;;
37087;SDS011;23002;52.676;6.432;2023-05-21T00:29:00;3.72;;;2.05;;
37087;SDS011;23002;52.676;6.432;2023-05-21T00:31:28;6.65;;;2.67;;
37087;SDS011;23002;52.676;6.432;2023-05-21T00:33:55;4.53;;;2.33;;
37087;SDS011;23002;52.676;6.432;2023-05-21T00:36:22;6.10;;;2.63;;
37087;SDS011;23002;52.676;6.432;2023-05-21T00:38:50;4.35;;;2.00;;
37087;SDS011;23002;52.676;6.432;2023-05-21T00:41:18;6.18;;;2.65;;
37087;SDS011;23002;52.676;6.432;2023-05-21T00:43:47;4.85;;;2.60;;
37087;SDS011;23002;52.676;6.432;2023-05-21T00:46:16;4.80;;;2.10;;
37087;SDS011;23002;52.676;6.432;2023-05-21T00:48:44;3.85;;;2.30;;
37087;SDS011;23002;52.676;6.432;2023-05-21T00:51:15;6.00;;;2.50;;
37087;SDS011;23002;52.676;6.432;2023-05-21T00:53:44;5.10;;;2.55;;
37087;SDS011;23002;52.676;6.432;2023-05-21T00:56:11;5.78;;;2.63;;
37087;SDS011;23002;52.676;6.432;2023-05-21T00:58:39;4.32;;;2.58;;
37087;SDS011;23002;52.676;6.432;2023-05-21T01:01:07;4.53;;;2.20;;
37087;SDS011;23002;52.676;6.432;2023-05-21T01:03:39;4.93;;;2.65;;
37087;SDS011;23002;52.676;6.432;2023-05-21T01:06:07;5.38;;;2.25;;
37087;SDS011;23002;52.676;6.432;2023-05-21T01:08:34;8.70;;;2.70;;
37087;SDS011;23002;52.676;6.432;2023-05-21T01:11:06;5.22;;;2.10;;
37087;SDS011;23002;52.676;6.432;2023-05-21T01:13:36;4.85;;;2.17;;
37087;SDS011;23002;52.676;6.432;2023-05-21T01:16:05;3.90;;;2.23;;
37087;SDS011;23002;52.676;6.432;2023-05-21T01:18:34;3.97;;;2.35;;
37087;SDS011;23002;52.676;6.432;2023-05-21T01:21:03;3.72;;;2.08;;
37087;SDS011;23002;52.676;6.432;2023-05-21T01:23:30;8.07;;;3.38;;
37087;SDS011;23002;52.676;6.432;2023-05-21T01:25:57;6.28;;;2.47;;
37087;SDS011;23002;52.676;6.432;2023-05-21T01:28:25;5.68;;;2.70;;
37087;SDS011;23002;52.676;6.432;2023-05-21T01:30:52;6.10;;;2.42;;
37087;SDS011;23002;52.676;6.432;2023-05-21T01:33:24;4.18;;;2.55;;
37087;SDS011;23002;52.676;6.432;2023-05-21T01:35:59;4.97;;;2.60;;
37087;SDS011;23002;52.676;6.432;2023-05-21T01:38:30;4.70;;;2.63;;
37087;SDS011;23002;52.676;6.432;2023-05-21T01:41:03;4.53;;;2.30;;
37087;SDS011;23002;52.676;6.432;2023-05-21T01:43:33;5.18;;;2.53;;
37087;SDS011;23002;52.676;6.432;2023-05-21T01:46:01;4.40;;;2.60;;
37087;SDS011;23002;52.676;6.432;2023-05-21T01:48:28;3.95;;;2.45;;
37087;SDS011;23002;52.676;6.432;2023-05-21T01:50:59;5.95;;;2.47;;
37087;SDS011;23002;52.676;6.432;2023-05-21T01:53:27;5.20;;;2.65;;
37087;SDS011;23002;52.676;6.432;2023-05-21T01:55:54;4.13;;;2.20;;
37087;SDS011;23002;52.676;6.432;2023-05-21T01:58:21;6.82;;;2.90;;
37087;SDS011;23002;52.676;6.432;2023-05-21T02:00:49;4.80;;;2.70;;
37087;SDS011;23002;52.676;6.432;2023-05-21T02:03:18;6.55;;;2.85;;
37087;SDS011;23002;52.676;6.432;2023-05-21T02:05:45;5.03;;;2.53;;
37087;SDS011;23002;52.676;6.432;2023-05-21T02:08:12;4.80;;;2.95;;
37087;SDS011;23002;52.676;6.432;2023-05-21T02:10:40;5.45;;;2.40;;
37087;SDS011;23002;52.676;6.432;2023-05-21T02:13:07;4.30;;;2.90;;
37087;SDS011;23002;52.676;6.432;2023-05-21T02:15:34;5.05;;;2.70;;
37087;SDS011;23002;52.676;6.432;2023-05-21T02:18:02;7.47;;;2.60;;
37087;SDS011;23002;52.676;6.432;2023-05-21T02:20:31;5.60;;;3.00;;
37087;SDS011;23002;52.676;6.432;2023-05-21T02:22:58;5.80;;;2.53;;
37087;SDS011;23002;52.676;6.432;2023-05-21T02:25:25;5.60;;;2.72;;
37087;SDS011;23002;52.676;6.432;2023-05-21T02:27:52;4.97;;;2.60;;
37087;SDS011;23002;52.676;6.432;2023-05-21T02:30:21;4.22;;;2.55;;
37087;SDS011;23002;52.676;6.432;2023-05-21T02:32:49;3.83;;;2.28;;
37087;SDS011;23002;52.676;6.432;2023-05-21T02:35:16;4.88;;;2.60;;
37087;SDS011;23002;52.676;6.432;2023-05-21T02:37:43;4.75;;;2.50;;
37087;SDS011;23002;52.676;6.432;2023-05-21T02:40:10;4.90;;;2.58;;
37087;SDS011;23002;52.676;6.432;2023-05-21T02:42:38;3.90;;;2.47;;
37087;SDS011;23002;52.676;6.432;2023-05-21T02:45:07;6.60;;;2.78;;
37087;SDS011;23002;52.676;6.432;2023-05-21T02:47:34;6.10;;;2.88;;
37087;SDS011;23002;52.676;6.432;2023-05-21T02:50:04;8.20;;;3.10;;
37087;SDS011;23002;52.676;6.432;2023-05-21T02:52:32;5.68;;;2.78;;
37087;SDS011;23002;52.676;6.432;2023-05-21T02:54:59;5.68;;;2.55;;
37087;SDS011;23002;52.676;6.432;2023-05-21T02:57:26;6.25;;;2.80;;
37087;SDS011;23002;52.676;6.432;2023-05-21T02:59:53;5.30;;;2.58;;
37087;SDS011;23002;52.676;6.432;2023-05-21T03:02:20;4.65;;;2.55;;
37087;SDS011;23002;52.676;6.432;2023-05-21T03:04:48;6.95;;;2.92;;
37087;SDS011;23002;52.676;6.432;2023-05-21T03:07:16;8.20;;;3.78;;
37087;SDS011;23002;52.676;6.432;2023-05-21T03:09:44;4.70;;;2.72;;
37087;SDS011;23002;52.676;6.432;2023-05-21T03:12:11;6.47;;;2.67;;
37087;SDS011;23002;52.676;6.432;2023-05-21T03:14:38;5.25;;;2.72;;
37087;SDS011;23002;52.676;6.432;2023-05-21T03:17:09;7.45;;;2.40;;
37087;SDS011;23002;52.676;6.432;2023-05-21T03:19:39;6.95;;;2.92;;
37087;SDS011;23002;52.676;6.432;2023-05-21T03:22:07;7.13;;;2.40;;
37087;SDS011;23002;52.676;6.432;2023-05-21T03:24:34;4.90;;;2.83;;
37087;SDS011;23002;52.676;6.432;2023-05-21T03:27:02;5.00;;;2.67;;
37087;SDS011;23002;52.676;6.432;2023-05-21T03:29:31;7.05;;;2.65;;
37087;SDS011;23002;52.676;6.432;2023-05-21T03:31:59;4.82;;;2.65;;
37087;SDS011;23002;52.676;6.432;2023-05-21T03:34:27;6.60;;;2.75;;
37087;SDS011;23002;52.676;6.432;2023-05-21T03:36:54;4.70;;;2.67;;
37087;SDS011;23002;52.676;6.432;2023-05-21T03:39:21;9.70;;;3.17;;
37087;SDS011;23002;52.676;6.432;2023-05-21T03:41:48;5.13;;;2.58;;
37087;SDS011;23002;52.676;6.432;2023-05-21T03:44:15;5.85;;;2.90;;
37087;SDS011;23002;52.676;6.432;2023-05-21T03:46:42;7.40;;;3.22;;
37087;SDS011;23002;52.676;6.432;2023-05-21T03:49:10;4.93;;;2.85;;
37087;SDS011;23002;52.676;6.432;2023-05-21T03:51:37;6.47;;;2.60;;
37087;SDS011;23002;52.676;6.432;2023-05-21T03:54:05;7.38;;;2.92;;
37087;SDS011;23002;52.676;6.432;2023-05-21T03:56:32;9.85;;;3.35;;
37087;SDS011;23002;52.676;6.432;2023-05-21T03:58:59;6.43;;;2.78;;
37087;SDS011;23002;52.676;6.432;2023-05-21T04:01:26;5.60;;;3.03;;
37087;SDS011;23002;52.676;6.432;2023-05-21T04:03:54;9.77;;;2.88;;
37087;SDS011;23002;52.676;6.432;2023-05-21T04:06:21;6.78;;;3.03;;
37087;SDS011;23002;52.676;6.432;2023-05-21T04:08:48;10.60;;;3.33;;
37087;SDS011;23002;52.676;6.432;2023-05-21T04:11:16;6.88;;;3.10;;
37087;SDS011;23002;52.676;6.432;2023-05-21T04:13:43;6.38;;;2.95;;
37087;SDS011;23002;52.676;6.432;2023-05-21T04:16:11;4.10;;;2.58;;
37087;SDS011;23002;52.676;6.432;2023-05-21T04:18:40;5.20;;;2.92;;
37087;SDS011;23002;52.676;6.432;2023-05-21T04:21:10;4.63;;;2.72;;
37087;SDS011;23002;52.676;6.432;2023-05-21T04:23:37;5.82;;;2.70;;
37087;SDS011;23002;52.676;6.432;2023-05-21T04:26:05;9.52;;;2.90;;
37087;SDS011;23002;52.676;6.432;2023-05-21T04:28:33;6.43;;;3.28;;
37087;SDS011;23002;52.676;6.432;2023-05-21T04:31:00;9.18;;;3.30;;
37087;SDS011;23002;52.676;6.432;2023-05-21T04:33:28;8.43;;;2.95;;
37087;SDS011;23002;52.676;6.432;2023-05-21T04:35:55;5.60;;;3.00;;
37087;SDS011;23002;52.676;6.432;2023-05-21T04:38:22;8.45;;;3.00;;
37087;SDS011;23002;52.676;6.432;2023-05-21T04:40:51;5.68;;;3.15;;
37087;SDS011;23002;52.676;6.432;2023-05-21T04:43:18;5.10;;;2.72;;
37087;SDS011;23002;52.676;6.432;2023-05-21T04:45:51;9.35;;;3.45;;
37087;SDS011;23002;52.676;6.432;2023-05-21T04:48:23;5.85;;;2.88;;
37087;SDS011;23002;52.676;6.432;2023-05-21T04:50:52;9.80;;;2.88;;
37087;SDS011;23002;52.676;6.432;2023-05-21T04:53:21;5.95;;;2.75;;
37087;SDS011;23002;52.676;6.432;2023-05-21T04:55:48;6.78;;;3.22;;
37087;SDS011;23002;52.676;6.432;2023-05-21T04:58:15;7.85;;;3.20;;
37087;SDS011;23002;52.676;6.432;2023-05-21T05:00:44;6.10;;;2.42;;
37087;SDS011;23002;52.676;6.432;2023-05-21T05:03:12;7.03;;;3.00;;
37087;SDS011;23002;52.676;6.432;2023-05-21T05:05:39;4.95;;;2.05;;
37087;SDS011;23002;52.676;6.432;2023-05-21T05:08:07;6.53;;;2.60;;
37087;SDS011;23002;52.676;6.432;2023-05-21T05:10:34;6.03;;;2.97;;
37087;SDS011;23002;52.676;6.432;2023-05-21T05:13:01;4.57;;;2.72;;
37087;SDS011;23002;52.676;6.432;2023-05-21T05:15:29;4.15;;;2.45;;
37087;SDS011;23002;52.676;6.432;2023-05-21T05:17:56;7.25;;;2.85;;
37087;SDS011;23002;52.676;6.432;2023-05-21T05:20:23;6.88;;;2.75;;
37087;SDS011;23002;52.676;6.432;2023-05-21T05:22:50;4.82;;;2.80;;
37087;SDS011;23002;52.676;6.432;2023-05-21T05:25:17;5.50;;;2.53;;
37087;SDS011;23002;52.676;6.432;2023-05-21T05:27:45;5.95;;;2.55;;
37087;SDS011;23002;52.676;6.432;2023-05-21T05:30:12;5.65;;;2.63;;
37087;SDS011;23002;52.676;6.432;2023-05-21T05:32:39;4.95;;;2.65;;
37087;SDS011;23002;52.676;6.432;2023-05-21T05:35:06;6.10;;;2.83;;
37087;SDS011;23002;52.676;6.432;2023-05-21T05:37:34;5.93;;;2.80;;
37087;SDS011;23002;52.676;6.432;2023-05-21T05:40:01;5.50;;;2.50;;
37087;SDS011;23002;52.676;6.432;2023-05-21T05:42:29;7.22;;;3.10;;
37087;SDS011;23002;52.676;6.432;2023-05-21T05:44:56;5.38;;;2.70;;
37087;SDS011;23002;52.676;6.432;2023-05-21T05:47:23;5.40;;;2.33;;
37087;SDS011;23002;52.676;6.432;2023-05-21T05:49:51;5.03;;;2.55;;
37087;SDS011;23002;52.676;6.432;2023-05-21T05:52:18;4.53;;;2.47;;
37087;SDS011;23002;52.676;6.432;2023-05-21T05:54:45;5.10;;;2.08;;
37087;SDS011;23002;52.676;6.432;2023-05-21T05:57:13;6.13;;;2.70;;
37087;SDS011;23002;52.676;6.432;2023-05-21T05:59:40;5.72;;;2.92;;
37087;SDS011;23002;52.676;6.432;2023-05-21T06:02:07;4.70;;;2.25;;
37087;SDS011;23002;52.676;6.432;2023-05-21T06:04:34;4.80;;;2.60;;
37087;SDS011;23002;52.676;6.432;2023-05-21T06:07:01;5.95;;;2.70;;
37087;SDS011;23002;52.676;6.432;2023-05-21T06:09:28;5.53;;;2.40;;
37087;SDS011;23002;52.676;6.432;2023-05-21T06:11:55;5.93;;;2.45;;
37087;SDS011;23002;52.676;6.432;2023-05-21T06:14:22;4.50;;;2.17;;
37087;SDS011;23002;52.676;6.432;2023-05-21T06:16:49;4.93;;;2.30;;
37087;SDS011;23002;52.676;6.432;2023-05-21T06:19:17;6.82;;;2.90;;
37087;SDS011;23002;52.676;6.432;2023-05-21T06:21:44;7.20;;;2.40;;
37087;SDS011;23002;52.676;6.432;2023-05-21T06:24:11;4.95;;;2.15;;
37087;SDS011;23002;52.676;6.432;2023-05-21T06:26:38;4.88;;;2.30;;
37087;SDS011;23002;52.676;6.432;2023-05-21T06:29:05;4.53;;;1.90;;
37087;SDS011;23002;52.676;6.432;2023-05-21T06:31:33;3.60;;;1.95;;
37087;SDS011;23002;52.676;6.432;2023-05-21T06:34:00;3.88;;;2.17;;
37087;SDS011;23002;52.676;6.432;2023-05-21T06:36:27;4.22;;;2.25;;
37087;SDS011;23002;52.676;6.432;2023-05-21T06:38:55;7.40;;;2.42;;
37087;SDS011;23002;52.676;6.432;2023-05-21T06:41:22;5.20;;;2.10;;
37087;SDS011;23002;52.676;6.432;2023-05-21T06:43:49;6.07;;;2.50;;
37087;SDS011;23002;52.676;6.432;2023-05-21T06:46:16;7.28;;;2.60;;
37087;SDS011;23002;52.676;6.432;2023-05-21T06:48:44;4.85;;;2.05;;
37087;SDS011;23002;52.676;6.432;2023-05-21T06:51:11;5.80;;;2.20;;
37087;SDS011;23002;52.676;6.432;2023-05-21T06:53:38;7.80;;;2.08;;
37087;SDS011;23002;52.676;6.432;2023-05-21T06:56:06;4.75;;;2.10;;
37087;SDS011;23002;52.676;6.432;2023-05-21T06:58:33;3.08;;;2.00;;
37087;SDS011;23002;52.676;6.432;2023-05-21T07:01:00;7.32;;;2.35;;
37087;SDS011;23002;52.676;6.432;2023-05-21T07:03:28;4.97;;;2.03;;
37087;SDS011;23002;52.676;6.432;2023-05-21T07:05:58;5.75;;;2.35;;
37087;SDS011;23002;52.676;6.432;2023-05-21T07:08:25;9.02;;;2.67;;
37087;SDS011;23002;52.676;6.432;2023-05-21T07:10:52;4.00;;;2.30;;
37087;SDS011;23002;52.676;6.432;2023-05-21T07:13:21;6.10;;;2.22;;
37087;SDS011;23002;52.676;6.432;2023-05-21T07:15:48;4.00;;;1.83;;
37087;SDS011;23002;52.676;6.432;2023-05-21T07:18:15;5.63;;;2.38;;
37087;SDS011;23002;52.676;6.432;2023-05-21T07:20:43;7.00;;;2.28;;
37087;SDS011;23002;52.676;6.432;2023-05-21T07:23:10;6.93;;;2.17;;
37087;SDS011;23002;52.676;6.432;2023-05-21T07:25:37;4.97;;;2.33;;
37087;SDS011;23002;52.676;6.432;2023-05-21T07:28:04;5.65;;;1.90;;
37087;SDS011;23002;52.676;6.432;2023-05-21T07:30:32;5.07;;;2.00;;
37087;SDS011;23002;52.676;6.432;2023-05-21T07:32:59;4.63;;;1.83;;
37087;SDS011;23002;52.676;6.432;2023-05-21T07:35:26;4.28;;;1.92;;
37087;SDS011;23002;52.676;6.432;2023-05-21T07:37:54;5.75;;;2.08;;
37087;SDS011;23002;52.676;6.432;2023-05-21T07:40:21;4.45;;;2.10;;
37087;SDS011;23002;52.676;6.432;2023-05-21T07:42:48;4.18;;;2.33;;
37087;SDS011;23002;52.676;6.432;2023-05-21T07:45:15;4.10;;;2.00;;
37087;SDS011;23002;52.676;6.432;2023-05-21T07:47:43;5.30;;;2.08;;
37087;SDS011;23002;52.676;6.432;2023-05-21T07:50:12;4.72;;;2.20;;
37087;SDS011;23002;52.676;6.432;2023-05-21T07:52:39;4.55;;;1.98;;
37087;SDS011;23002;52.676;6.432;2023-05-21T07:55:07;6.05;;;1.83;;
37087;SDS011;23002;52.676;6.432;2023-05-21T07:57:35;4.25;;;2.20;;
37087;SDS011;23002;52.676;6.432;2023-05-21T08:00:02;4.55;;;2.08;;
37087;SDS011;23002;52.676;6.432;2023-05-21T08:02:33;5.47;;;2.13;;
37087;SDS011;23002;52.676;6.432;2023-05-21T08:05:00;4.00;;;1.73;;
37087;SDS011;23002;52.676;6.432;2023-05-21T08:07:27;5.13;;;1.98;;
37087;SDS011;23002;52.676;6.432;2023-05-21T08:09:54;3.67;;;1.75;;
37087;SDS011;23002;52.676;6.432;2023-05-21T08:12:22;3.92;;;1.70;;
37087;SDS011;23002;52.676;6.432;2023-05-21T08:14:49;4.10;;;1.90;;
37087;SDS011;23002;52.676;6.432;2023-05-21T08:17:16;8.60;;;1.85;;
37087;SDS011;23002;52.676;6.432;2023-05-21T08:19:43;3.40;;;1.70;;
37087;SDS011;23002;52.676;6.432;2023-05-21T08:22:10;4.45;;;1.77;;
37087;SDS011;23002;52.676;6.432;2023-05-21T08:24:37;3.05;;;1.58;;
37087;SDS011;23002;52.676;6.432;2023-05-21T08:27:06;4.60;;;1.52;;
37087;SDS011;23002;52.676;6.432;2023-05-21T08:29:33;2.85;;;1.58;;
37087;SDS011;23002;52.676;6.432;2023-05-21T08:32:00;3.03;;;1.83;;
37087;SDS011;23002;52.676;6.432;2023-05-21T08:34:27;2.80;;;1.58;;
37087;SDS011;23002;52.676;6.432;2023-05-21T08:36:54;3.42;;;1.85;;
37087;SDS011;23002;52.676;6.432;2023-05-21T08:39:22;6.03;;;2.03;;
37087;SDS011;23002;52.676;6.432;2023-05-21T08:41:49;3.60;;;1.70;;
37087;SDS011;23002;52.676;6.432;2023-05-21T08:44:18;7.45;;;2.28;;
37087;SDS011;23002;52.676;6.432;2023-05-21T08:46:49;5.30;;;2.08;;
37087;SDS011;23002;52.676;6.432;2023-05-21T08:49:17;7.07;;;2.22;;
37087;SDS011;23002;52.676;6.432;2023-05-21T08:51:49;4.43;;;1.60;;
37087;SDS011;23002;52.676;6.432;2023-05-21T08:54:17;6.13;;;1.75;;
37087;SDS011;23002;52.676;6.432;2023-05-21T08:56:44;6.88;;;1.90;;
37087;SDS011;23002;52.676;6.432;2023-05-21T08:59:14;4.05;;;2.05;;
37087;SDS011;23002;52.676;6.432;2023-05-21T09:01:43;5.57;;;2.10;;
37087;SDS011;23002;52.676;6.432;2023-05-21T09:04:11;4.05;;;1.98;;
37087;SDS011;23002;52.676;6.432;2023-05-21T09:06:47;6.47;;;2.55;;
37087;SDS011;23002;52.676;6.432;2023-05-21T09:09:24;3.40;;;1.90;;
37087;SDS011;23002;52.676;6.432;2023-05-21T09:11:53;4.53;;;2.30;;
37087;SDS011;23002;52.676;6.432;2023-05-21T09:14:20;4.82;;;2.65;;
37087;SDS011;23002;52.676;6.432;2023-05-21T09:16:49;5.18;;;2.75;;
37087;SDS011;23002;52.676;6.432;2023-05-21T09:19:18;9.45;;;2.50;;
37087;SDS011;23002;52.676;6.432;2023-05-21T09:21:47;4.13;;;2.20;;
37087;SDS011;23002;52.676;6.432;2023-05-21T09:24:16;4.15;;;1.70;;
37087;SDS011;23002;52.676;6.432;2023-05-21T09:26:43;5.20;;;1.90;;
37087;SDS011;23002;52.676;6.432;2023-05-21T09:29:11;6.40;;;2.25;;
37087;SDS011;23002;52.676;6.432;2023-05-21T09:31:42;4.18;;;2.08;;
37087;SDS011;23002;52.676;6.432;2023-05-21T09:34:10;4.85;;;2.38;;
37087;SDS011;23002;52.676;6.432;2023-05-21T09:36:39;4.80;;;2.08;;
37087;SDS011;23002;52.676;6.432;2023-05-21T09:39:06;4.82;;;2.20;;
37087;SDS011;23002;52.676;6.432;2023-05-21T09:41:34;3.95;;;2.47;;
37087;SDS011;23002;52.676;6.432;2023-05-21T09:44:02;5.07;;;2.20;;
37087;SDS011;23002;52.676;6.432;2023-05-21T09:46:39;5.20;;;2.28;;
37087;SDS011;23002;52.676;6.432;2023-05-21T09:49:11;6.20;;;2.28;;
37087;SDS011;23002;52.676;6.432;2023-05-21T09:51:47;4.57;;;2.20;;
37087;SDS011;23002;52.676;6.432;2023-05-21T09:54:14;4.60;;;2.40;;
37087;SDS011;23002;52.676;6.432;2023-05-21T09:56:42;3.78;;;1.95;;
37087;SDS011;23002;52.676;6.432;2023-05-21T09:59:09;3.88;;;1.85;;
37087;SDS011;23002;52.676;6.432;2023-05-21T10:01:36;4.65;;;2.13;;
37087;SDS011;23002;52.676;6.432;2023-05-21T10:04:07;4.90;;;2.17;;
37087;SDS011;23002;52.676;6.432;2023-05-21T10:06:36;4.68;;;1.80;;
37087;SDS011;23002;52.676;6.432;2023-05-21T10:09:08;6.50;;;2.25;;
37087;SDS011;23002;52.676;6.432;2023-05-21T10:11:35;4.97;;;2.22;;
37087;SDS011;23002;52.676;6.432;2023-05-21T10:14:04;4.30;;;2.40;;
37087;SDS011;23002;52.676;6.432;2023-05-21T10:16:33;6.15;;;2.63;;
37087;SDS011;23002;52.676;6.432;2023-05-21T10:19:01;5.15;;;2.50;;
37087;SDS011;23002;52.676;6.432;2023-05-21T10:21:29;5.85;;;2.45;;
37087;SDS011;23002;52.676;6.432;2023-05-21T10:26:27;5.78;;;2.80;;
37087;SDS011;23002;52.676;6.432;2023-05-21T10:28:56;5.18;;;2.67;;
37087;SDS011;23002;52.676;6.432;2023-05-21T10:31:25;5.72;;;2.90;;
37087;SDS011;23002;52.676;6.432;2023-05-21T10:33:53;7.78;;;3.05;;
37087;SDS011;23002;52.676;6.432;2023-05-21T10:36:22;6.60;;;3.03;;
37087;SDS011;23002;52.676;6.432;2023-05-21T10:38:50;7.07;;;2.70;;
37087;SDS011;23002;52.676;6.432;2023-05-21T10:41:18;6.50;;;2.88;;
37087;SDS011;23002;52.676;6.432;2023-05-21T10:43:55;8.85;;;3.17;;
37087;SDS011;23002;52.676;6.432;2023-05-21T10:51:44;8.05;;;3.38;;
37087;SDS011;23002;52.676;6.432;2023-05-21T10:59:47;12.35;;;4.38;;
37087;SDS011;23002;52.676;6.432;2023-05-21T11:02:14;8.02;;;4.10;;
37087;SDS011;23002;52.676;6.432;2023-05-21T11:04:43;6.78;;;3.80;;
37087;SDS011;23002;52.676;6.432;2023-05-21T11:07:11;6.32;;;3.75;;
37087;SDS011;23002;52.676;6.432;2023-05-21T11:09:38;7.78;;;4.38;;
37087;SDS011;23002;52.676;6.432;2023-05-21T11:12:05;9.00;;;4.57;;
37087;SDS011;23002;52.676;6.432;2023-05-21T11:14:35;9.48;;;4.38;;
37087;SDS011;23002;52.676;6.432;2023-05-21T11:19:33;8.32;;;4.78;;
37087;SDS011;23002;52.676;6.432;2023-05-21T11:22:09;8.50;;;4.05;;
37087;SDS011;23002;52.676;6.432;2023-05-21T11:24:37;9.63;;;5.18;;
37087;SDS011;23002;52.676;6.432;2023-05-21T11:27:04;9.35;;;4.72;;
37087;SDS011;23002;52.676;6.432;2023-05-21T11:29:35;11.95;;;5.43;;
37087;SDS011;23002;52.676;6.432;2023-05-21T11:32:06;9.18;;;4.70;;
37087;SDS011;23002;52.676;6.432;2023-05-21T11:34:40;9.10;;;4.78;;
37087;SDS011;23002;52.676;6.432;2023-05-21T11:39:46;9.55;;;5.32;;
37087;SDS011;23002;52.676;6.432;2023-05-21T11:42:26;7.60;;;4.63;;
37087;SDS011;23002;52.676;6.432;2023-05-21T11:44:54;9.43;;;4.60;;
37087;SDS011;23002;52.676;6.432;2023-05-21T11:47:23;9.40;;;4.28;;
37087;SDS011;23002;52.676;6.432;2023-05-21T11:49:54;9.00;;;5.28;;
37087;SDS011;23002;52.676;6.432;2023-05-21T11:52:22;8.25;;;5.03;;
37087;SDS011;23002;52.676;6.432;2023-05-21T11:54:50;8.52;;;4.93;;
37087;SDS011;23002;52.676;6.432;2023-05-21T11:57:20;9.63;;;5.15;;
37087;SDS011;23002;52.676;6.432;2023-05-21T11:59:48;11.48;;;4.90;;
37087;SDS011;23002;52.676;6.432;2023-05-21T12:02:19;9.10;;;5.15;;
37087;SDS011;23002;52.676;6.432;2023-05-21T12:04:47;9.77;;;5.38;;
37087;SDS011;23002;52.676;6.432;2023-05-21T12:07:15;13.55;;;4.65;;
37087;SDS011;23002;52.676;6.432;2023-05-21T12:09:44;8.25;;;4.70;;
37087;SDS011;23002;52.676;6.432;2023-05-21T12:12:16;7.70;;;4.60;;
37087;SDS011;23002;52.676;6.432;2023-05-21T12:14:44;8.73;;;5.10;;
37087;SDS011;23002;52.676;6.432;2023-05-21T12:17:11;8.98;;;4.78;;
37087;SDS011;23002;52.676;6.432;2023-05-21T12:19:38;7.13;;;4.50;;
37087;SDS011;23002;52.676;6.432;2023-05-21T12:22:06;13.20;;;5.07;;
37087;SDS011;23002;52.676;6.432;2023-05-21T12:24:34;9.05;;;4.53;;
37087;SDS011;23002;52.676;6.432;2023-05-21T12:27:02;10.32;;;5.22;;
37087;SDS011;23002;52.676;6.432;2023-05-21T12:29:38;8.32;;;4.93;;
37087;SDS011;23002;52.676;6.432;2023-05-21T12:32:06;10.00;;;5.68;;
37087;SDS011;23002;52.676;6.432;2023-05-21T12:37:11;9.30;;;4.65;;
37087;SDS011;23002;52.676;6.432;2023-05-21T12:39:44;9.05;;;5.18;;
37087;SDS011;23002;52.676;6.432;2023-05-21T12:42:11;11.32;;;4.55;;
37087;SDS011;23002;52.676;6.432;2023-05-21T12:44:40;9.38;;;4.63;;
37087;SDS011;23002;52.676;6.432;2023-05-21T12:47:09;9.73;;;5.47;;
37087;SDS011;23002;52.676;6.432;2023-05-21T12:49:40;8.35;;;4.97;;
37087;SDS011;23002;52.676;6.432;2023-05-21T12:52:08;8.27;;;4.55;;
37087;SDS011;23002;52.676;6.432;2023-05-21T12:54:37;9.48;;;4.75;;
37087;SDS011;23002;52.676;6.432;2023-05-21T12:57:05;13.05;;;5.28;;
37087;SDS011;23002;52.676;6.432;2023-05-21T12:59:42;10.88;;;4.70;;
37087;SDS011;23002;52.676;6.432;2023-05-21T13:02:13;8.90;;;5.35;;
37087;SDS011;23002;52.676;6.432;2023-05-21T13:04:41;7.90;;;4.88;;
37087;SDS011;23002;52.676;6.432;2023-05-21T13:07:08;12.07;;;5.22;;
37087;SDS011;23002;52.676;6.432;2023-05-21T13:09:35;8.45;;;5.03;;
37087;SDS011;23002;52.676;6.432;2023-05-21T13:12:02;11.48;;;5.82;;
37087;SDS011;23002;52.676;6.432;2023-05-21T13:14:30;8.52;;;5.18;;
37087;SDS011;23002;52.676;6.432;2023-05-21T13:16:57;9.38;;;5.38;;
37087;SDS011;23002;52.676;6.432;2023-05-21T13:19:24;9.93;;;5.97;;
37087;SDS011;23002;52.676;6.432;2023-05-21T13:21:51;11.95;;;6.00;;
37087;SDS011;23002;52.676;6.432;2023-05-21T13:24:19;13.63;;;6.10;;
37087;SDS011;23002;52.676;6.432;2023-05-21T13:26:46;9.70;;;5.38;;
37087;SDS011;23002;52.676;6.432;2023-05-21T13:29:13;10.80;;;5.43;;
37087;SDS011;23002;52.676;6.432;2023-05-21T13:31:40;10.38;;;5.65;;
37087;SDS011;23002;52.676;6.432;2023-05-21T13:34:09;11.30;;;6.20;;
37087;SDS011;23002;52.676;6.432;2023-05-21T13:36:36;10.82;;;5.90;;
37087;SDS011;23002;52.676;6.432;2023-05-21T13:39:04;10.18;;;5.60;;
37087;SDS011;23002;52.676;6.432;2023-05-21T13:41:31;14.52;;;6.43;;
37087;SDS011;23002;52.676;6.432;2023-05-21T13:43:58;12.30;;;6.35;;
37087;SDS011;23002;52.676;6.432;2023-05-21T13:46:25;10.15;;;5.82;;
37087;SDS011;23002;52.676;6.432;2023-05-21T13:48:53;13.57;;;7.43;;
37087;SDS011;23002;52.676;6.432;2023-05-21T13:51:20;11.20;;;5.93;;
37087;SDS011;23002;52.676;6.432;2023-05-21T13:54:03;13.05;;;6.22;;
37087;SDS011;23002;52.676;6.432;2023-05-21T13:56:30;12.77;;;6.80;;
37087;SDS011;23002;52.676;6.432;2023-05-21T13:58:59;11.95;;;6.45;;
37087;SDS011;23002;52.676;6.432;2023-05-21T14:01:26;14.43;;;6.03;;
37087;SDS011;23002;52.676;6.432;2023-05-21T14:03:55;15.57;;;7.63;;
37087;SDS011;23002;52.676;6.432;2023-05-21T14:06:22;13.57;;;6.55;;
37087;SDS011;23002;52.676;6.432;2023-05-21T14:08:49;11.98;;;6.53;;
37087;SDS011;23002;52.676;6.432;2023-05-21T14:11:17;11.68;;;6.53;;
37087;SDS011;23002;52.676;6.432;2023-05-21T14:13:44;11.63;;;6.10;;
37087;SDS011;23002;52.676;6.432;2023-05-21T14:16:11;12.50;;;6.10;;
37087;SDS011;23002;52.676;6.432;2023-05-21T14:18:38;12.57;;;6.25;;
37087;SDS011;23002;52.676;6.432;2023-05-21T14:21:05;10.32;;;5.78;;
37087;SDS011;23002;52.676;6.432;2023-05-21T14:23:33;14.18;;;6.75;;
37087;SDS011;23002;52.676;6.432;2023-05-21T14:26:00;11.63;;;6.22;;
37087;SDS011;23002;52.676;6.432;2023-05-21T14:28:27;12.48;;;6.53;;
37087;SDS011;23002;52.676;6.432;2023-05-21T14:30:54;12.88;;;6.45;;
37087;SDS011;23002;52.676;6.432;2023-05-21T14:33:21;17.92;;;7.03;;
37087;SDS011;23002;52.676;6.432;2023-05-21T14:35:48;11.90;;;6.78;;
37087;SDS011;23002;52.676;6.432;2023-05-21T14:38:15;12.20;;;6.30;;
37087;SDS011;23002;52.676;6.432;2023-05-21T14:40:43;13.80;;;7.22;;
37087;SDS011;23002;52.676;6.432;2023-05-21T14:43:10;12.57;;;7.00;;
37087;SDS011;23002;52.676;6.432;2023-05-21T14:45:37;13.02;;;6.45;;
37087;SDS011;23002;52.676;6.432;2023-05-21T14:48:05;15.30;;;7.43;;
37087;SDS011;23002;52.676;6.432;2023-05-21T14:50:34;11.63;;;6.20;;
37087;SDS011;23002;52.676;6.432;2023-05-21T14:53:08;12.98;;;7.38;;
37087;SDS011;23002;52.676;6.432;2023-05-21T14:55:36;16.20;;;7.03;;
37087;SDS011;23002;52.676;6.432;2023-05-21T14:58:04;13.32;;;6.80;;
37087;SDS011;23002;52.676;6.432;2023-05-21T15:00:31;12.63;;;6.57;;
37087;SDS011;23002;52.676;6.432;2023-05-21T15:02:59;12.20;;;6.38;;
37087;SDS011;23002;52.676;6.432;2023-05-21T15:05:26;15.15;;;7.68;;
37087;SDS011;23002;52.676;6.432;2023-05-21T15:07:54;11.60;;;6.82;;
37087;SDS011;23002;52.676;6.432;2023-05-21T15:10:22;13.80;;;7.40;;
37087;SDS011;23002;52.676;6.432;2023-05-21T15:12:50;11.70;;;6.45;;